Share

Dubrovnik, Hrvatska

Cilipi (LDDU) Elev 541 ft | 42.56 °N, 18.27 °E | Change Station

Current weather conditions updated 26 minutes ago

Mostly Cloudy
Pretežno oblačno
59 °F
Feels Like 59 °F
S
15
Vjetar Varijabla smjera vjetra Vjetar from IJI
Izlazak sunca 5:56 AM
Zalazak sunca 7:35 PM
Moon Zadnja četvrt

Today is forecast to be Warmer than yesterday. Pljuskovi..

Pritisak 29.83 u
Vidljivost 6.2 milja
Oblaci Pretežno oblačno 1000 ft
Točka rose 55 °F
Vlažnost 88%
Kiša 0.00 u
Visina snijega Not available.
UV 0 od 16
Pollen Not available.
Kvalitet zraka Not available.
Flu Activity Not available.
METAR LDDU 210200Z 12013KT 9999 BKN010 15/13 Q1010 NOSIG

More Conditions Fewer Conditions

Pritisak 29.83 u
Vidljivost 6.2 milja
Oblaci Pretežno oblačno 1000 ft
Točka rose 55 °F
Vlažnost 88%
Kiša 0.00 u
Visina snijega Not available.
UV 0 od 16
Pollen Not available.
Kvalitet zraka Not available.
Flu Activity Not available.
METAR LDDU 210200Z 12013KT 9999 BKN010 15/13 Q1010 NOSIG

More Conditions Fewer Conditions

10-Day Weather Forecast

Almanac

Astronomija

Apr. 21, 2014 Izlazak Zalazak
Trenutno vrijeme 5:56 AM CEST 7:35 PM CEST
Civilni sumrak 5:26 AM CEST 8:05 PM CEST
Nautički sumrak 4:50 AM CEST 8:41 PM CEST
Astronomski sumrak 4:12 AM CEST 9:20 PM CEST
Moon 12:53 AM CEST 11:01 AM CEST
Duljina trajanja vidljive svjetlosti 14h 38m
Duljina dana
13h 38m
Tomorrow will be 2m 41s longer.
Zadnja četvrt, 64% of the Moon is Illuminated
Tra 20
Zadnja četvrt
Tra 22
Zadnja četvrt
Tra 29
New
Svi 6
Prva četvrtina
Svi 14
Pun mjesec

Yesterday's Extremes

Country Highs Country Lows

Community

  • Sun Pillar and Geese
    Sun Pillar and Geese
  • Easter Morning Fog
    Easter Morning Fog
  • Easter Dance
    Easter Dance
  • spring skiing mount Baker WA
    spring skiing mount Baker WA
  • Morning Sun
    Morning Sun

WunderPhotos

Upload Photos

1,703,521 photos uploaded!

WunderBlogs® & News

Nearby

Kvalitet zraka

Not available.

Visina snijega

Not available.

Coastal Water Temperatures

Mjesto Temperatura
No Stations Reporting

Earthquake Activity

Grad Distance Mag. Time & Date
No recent earthquake activity has been reported nearby.
Minimum magnitude displayed is 2.5.

Nearby Weather Stations

There are no personal weather stations in this area.

What do you think?

We're not finished. Please let us know what you like, what you don't like, and what you are still missing.